sensor_id;sensor_type;location;lat;lon;timestamp;pressure;altitude;pressure_sealevel;temperature;humidity
38022;BME280;23832;43.216;27.946;2023-02-21T00:01:16;100801.50;;;9.06;56.93
38022;BME280;23832;43.216;27.946;2023-02-21T00:03:35;100809.41;;;9.06;57.07
38022;BME280;23832;43.216;27.946;2023-02-21T00:05:54;100801.50;;;9.06;56.82
38022;BME280;23832;43.216;27.946;2023-02-21T00:08:13;100804.84;;;9.08;57.07
38022;BME280;23832;43.216;27.946;2023-02-21T00:10:32;100805.50;;;9.10;57.04
38022;BME280;23832;43.216;27.946;2023-02-21T00:12:51;100799.41;;;9.10;57.21
38022;BME280;23832;43.216;27.946;2023-02-21T00:15:12;100792.16;;;9.12;56.94
38022;BME280;23832;43.216;27.946;2023-02-21T00:17:31;100787.06;;;9.10;57.06
38022;BME280;23832;43.216;27.946;2023-02-21T00:19:50;100788.88;;;9.10;56.80
38022;BME280;23832;43.216;27.946;2023-02-21T00:22:09;100784.44;;;9.10;57.11
38022;BME280;23832;43.216;27.946;2023-02-21T00:24:28;100773.94;;;9.10;56.97
38022;BME280;23832;43.216;27.946;2023-02-21T00:26:47;100772.28;;;9.09;57.28
38022;BME280;23832;43.216;27.946;2023-02-21T00:29:06;100771.13;;;9.12;57.09
38022;BME280;23832;43.216;27.946;2023-02-21T00:31:26;100766.84;;;9.11;57.13
38022;BME280;23832;43.216;27.946;2023-02-21T00:33:45;100766.03;;;9.10;57.19
38022;BME280;23832;43.216;27.946;2023-02-21T00:36:04;100760.63;;;9.12;57.41
38022;BME280;23832;43.216;27.946;2023-02-21T00:38:23;100760.44;;;9.14;57.42
38022;BME280;23832;43.216;27.946;2023-02-21T00:40:43;100756.81;;;9.15;57.58
38022;BME280;23832;43.216;27.946;2023-02-21T00:43:02;100754.19;;;9.15;57.71
38022;BME280;23832;43.216;27.946;2023-02-21T00:45:21;100755.19;;;9.14;57.73
38022;BME280;23832;43.216;27.946;2023-02-21T00:47:41;100761.09;;;9.16;57.88
38022;BME280;23832;43.216;27.946;2023-02-21T00:50:00;100750.59;;;9.16;58.31
38022;BME280;23832;43.216;27.946;2023-02-21T00:52:19;100756.53;;;9.18;58.44
38022;BME280;23832;43.216;27.946;2023-02-21T00:54:38;100753.91;;;9.18;58.84
38022;BME280;23832;43.216;27.946;2023-02-21T00:56:57;100751.91;;;9.20;58.86
38022;BME280;23832;43.216;27.946;2023-02-21T00:59:16;100748.31;;;9.21;59.06
38022;BME280;23832;43.216;27.946;2023-02-21T01:01:35;100750.78;;;9.22;59.04
38022;BME280;23832;43.216;27.946;2023-02-21T01:03:55;100755.03;;;9.23;59.10
38022;BME280;23832;43.216;27.946;2023-02-21T01:06:15;100752.25;;;9.25;59.54
38022;BME280;23832;43.216;27.946;2023-02-21T01:08:34;100741.72;;;9.25;59.82
38022;BME280;23832;43.216;27.946;2023-02-21T01:10:53;100740.09;;;9.24;59.56
38022;BME280;23832;43.216;27.946;2023-02-21T01:13:12;100739.25;;;9.23;60.06
38022;BME280;23832;43.216;27.946;2023-02-21T01:15:30;100734.66;;;9.25;59.72
38022;BME280;23832;43.216;27.946;2023-02-21T01:17:49;100728.44;;;9.26;59.83
38022;BME280;23832;43.216;27.946;2023-02-21T01:20:10;100724.00;;;9.27;59.87
38022;BME280;23832;43.216;27.946;2023-02-21T01:22:29;100722.34;;;9.26;60.25
38022;BME280;23832;43.216;27.946;2023-02-21T01:24:48;100720.53;;;9.26;60.09
38022;BME280;23832;43.216;27.946;2023-02-21T01:27:07;100716.09;;;9.27;60.37
38022;BME280;23832;43.216;27.946;2023-02-21T01:29:26;100708.22;;;9.27;60.61
38022;BME280;23832;43.216;27.946;2023-02-21T01:31:45;100705.56;;;9.27;60.40
38022;BME280;23832;43.216;27.946;2023-02-21T01:34:04;100702.13;;;9.26;60.68
38022;BME280;23832;43.216;27.946;2023-02-21T01:36:25;100697.00;;;9.25;60.84
38022;BME280;23832;43.216;27.946;2023-02-21T01:38:44;100693.72;;;9.23;60.97
38022;BME280;23832;43.216;27.946;2023-02-21T01:41:03;100693.72;;;9.23;61.33
38022;BME280;23832;43.216;27.946;2023-02-21T01:43:22;100691.91;;;9.23;61.65
38022;BME280;23832;43.216;27.946;2023-02-21T01:45:42;100691.91;;;9.23;62.04
38022;BME280;23832;43.216;27.946;2023-02-21T01:48:03;100698.69;;;9.26;62.26
38022;BME280;23832;43.216;27.946;2023-02-21T01:50:24;100680.09;;;9.27;62.13
38022;BME280;23832;43.216;27.946;2023-02-21T01:52:45;100682.56;;;9.29;62.54
38022;BME280;23832;43.216;27.946;2023-02-21T01:55:06;100685.19;;;9.29;62.39
38022;BME280;23832;43.216;27.946;2023-02-21T01:57:25;100681.56;;;9.30;62.72
38022;BME280;23832;43.216;27.946;2023-02-21T01:59:44;100669.41;;;9.29;62.34
38022;BME280;23832;43.216;27.946;2023-02-21T02:02:05;100665.13;;;9.28;62.53
38022;BME280;23832;43.216;27.946;2023-02-21T02:04:27;100655.59;;;9.27;62.49
38022;BME280;23832;43.216;27.946;2023-02-21T02:06:45;100653.94;;;9.26;62.76
38022;BME280;23832;43.216;27.946;2023-02-21T02:09:16;100650.47;;;9.25;63.04
38022;BME280;23832;43.216;27.946;2023-02-21T02:11:38;100654.09;;;9.24;62.92
38022;BME280;23832;43.216;27.946;2023-02-21T02:14:05;100654.91;;;9.25;63.01
38022;BME280;23832;43.216;27.946;2023-02-21T02:16:10;100653.28;;;9.24;63.30
38022;BME280;23832;43.216;27.946;2023-02-21T02:25:25;100648.00;;;9.24;63.98
38022;BME280;23832;43.216;27.946;2023-02-21T02:27:39;100639.13;;;9.25;64.32
38022;BME280;23832;43.216;27.946;2023-02-21T02:32:19;100634.53;;;9.27;64.06
38022;BME280;23832;43.216;27.946;2023-02-21T02:36:48;100621.06;;;9.30;64.31
38022;BME280;23832;43.216;27.946;2023-02-21T02:38:52;100616.44;;;9.32;64.18
38022;BME280;23832;43.216;27.946;2023-02-21T02:40:58;100620.72;;;9.33;64.18
38022;BME280;23832;43.216;27.946;2023-02-21T02:43:02;100621.53;;;9.33;64.12
38022;BME280;23832;43.216;27.946;2023-02-21T02:45:11;100624.34;;;9.32;64.55
38022;BME280;23832;43.216;27.946;2023-02-21T02:47:16;100628.59;;;9.33;64.19
38022;BME280;23832;43.216;27.946;2023-02-21T02:49:20;100643.56;;;9.32;64.24
38022;BME280;23832;43.216;27.946;2023-02-21T02:51:22;100643.75;;;9.31;64.27
38022;BME280;23832;43.216;27.946;2023-02-21T02:53:28;100644.56;;;9.31;64.45
38022;BME280;23832;43.216;27.946;2023-02-21T02:55:33;100642.91;;;9.30;64.76
38022;BME280;23832;43.216;27.946;2023-02-21T02:57:35;100643.75;;;9.31;64.81
38022;BME280;23832;43.216;27.946;2023-02-21T02:59:41;100632.06;;;9.33;64.68
38022;BME280;23832;43.216;27.946;2023-02-21T03:01:55;100630.25;;;9.34;64.44
38022;BME280;23832;43.216;27.946;2023-02-21T03:04:05;100625.31;;;9.39;64.82
38022;BME280;23832;43.216;27.946;2023-02-21T03:06:18;100632.88;;;9.42;64.90
38022;BME280;23832;43.216;27.946;2023-02-21T03:08:25;100632.41;;;9.47;64.91
38022;BME280;23832;43.216;27.946;2023-02-21T03:10:32;100630.06;;;9.52;64.71
38022;BME280;23832;43.216;27.946;2023-02-21T03:12:40;100630.59;;;9.55;64.66
38022;BME280;23832;43.216;27.946;2023-02-21T03:14:45;100628.44;;;9.59;64.07
38022;BME280;23832;43.216;27.946;2023-02-21T03:16:51;100622.19;;;9.60;64.08
38022;BME280;23832;43.216;27.946;2023-02-21T03:18:55;100619.72;;;9.58;63.98
38022;BME280;23832;43.216;27.946;2023-02-21T03:20:59;100615.28;;;9.59;63.83
38022;BME280;23832;43.216;27.946;2023-02-21T03:23:02;100618.56;;;9.61;63.66
38022;BME280;23832;43.216;27.946;2023-02-21T03:25:04;100626.31;;;9.62;63.50
38022;BME280;23832;43.216;27.946;2023-02-21T03:27:08;100612.81;;;9.65;63.42
38022;BME280;23832;43.216;27.946;2023-02-21T03:29:10;100623.97;;;9.67;63.46
38022;BME280;23832;43.216;27.946;2023-02-21T03:31:12;100608.69;;;9.71;63.40
38022;BME280;23832;43.216;27.946;2023-02-21T03:33:16;100616.41;;;9.73;63.35
38022;BME280;23832;43.216;27.946;2023-02-21T03:35:17;100616.88;;;9.76;63.01
38022;BME280;23832;43.216;27.946;2023-02-21T03:37:20;100616.72;;;9.78;62.94
38022;BME280;23832;43.216;27.946;2023-02-21T03:39:22;100624.31;;;9.81;62.70
38022;BME280;23832;43.216;27.946;2023-02-21T03:41:23;100633.66;;;9.83;62.70
38022;BME280;23832;43.216;27.946;2023-02-21T03:43:26;100624.59;;;9.86;62.61
38022;BME280;23832;43.216;27.946;2023-02-21T03:45:28;100618.03;;;9.90;62.63
38022;BME280;23832;43.216;27.946;2023-02-21T03:47:29;100624.59;;;9.94;62.47
38022;BME280;23832;43.216;27.946;2023-02-21T03:49:31;100640.88;;;9.98;62.00
38022;BME280;23832;43.216;27.946;2023-02-21T03:51:33;100630.19;;;9.99;61.85
38022;BME280;23832;43.216;27.946;2023-02-21T03:53:34;100644.63;;;10.03;61.56
38022;BME280;23832;43.216;27.946;2023-02-21T03:55:36;100639.03;;;10.06;61.49
38022;BME280;23832;43.216;27.946;2023-02-21T03:57:37;100634.44;;;10.08;60.99
38022;BME280;23832;43.216;27.946;2023-02-21T03:59:40;100637.72;;;10.10;61.26
38022;BME280;23832;43.216;27.946;2023-02-21T04:01:42;100639.00;;;10.14;60.73
38022;BME280;23832;43.216;27.946;2023-02-21T04:03:44;100642.31;;;10.16;60.63
38022;BME280;23832;43.216;27.946;2023-02-21T04:05:45;100633.22;;;10.19;60.30
38022;BME280;23832;43.216;27.946;2023-02-21T04:07:47;100627.66;;;10.22;59.97
38022;BME280;23832;43.216;27.946;2023-02-21T04:09:48;100620.56;;;10.22;60.05
38022;BME280;23832;43.216;27.946;2023-02-21T04:11:50;100621.22;;;10.25;59.70
38022;BME280;23832;43.216;27.946;2023-02-21T04:13:52;100612.34;;;10.26;59.44
38022;BME280;23832;43.216;27.946;2023-02-21T04:15:55;100600.63;;;10.28;59.29
38022;BME280;23832;43.216;27.946;2023-02-21T04:17:56;100595.34;;;10.28;59.17
38022;BME280;23832;43.216;27.946;2023-02-21T04:19:58;100591.53;;;10.31;58.59
38022;BME280;23832;43.216;27.946;2023-02-21T04:21:59;100596.50;;;10.34;58.64
38022;BME280;23832;43.216;27.946;2023-02-21T04:24:01;100586.59;;;10.36;58.52
38022;BME280;23832;43.216;27.946;2023-02-21T04:26:03;100584.59;;;10.38;58.69
38022;BME280;23832;43.216;27.946;2023-02-21T04:28:05;100586.25;;;10.39;58.67
38022;BME280;23832;43.216;27.946;2023-02-21T04:30:07;100596.44;;;10.42;58.26
38022;BME280;23832;43.216;27.946;2023-02-21T04:32:10;100589.19;;;10.44;58.04
38022;BME280;23832;43.216;27.946;2023-02-21T04:34:12;100582.75;;;10.46;57.68
38022;BME280;23832;43.216;27.946;2023-02-21T04:36:13;100586.03;;;10.48;57.63
38022;BME280;23832;43.216;27.946;2023-02-21T04:38:15;100584.84;;;10.51;57.56
38022;BME280;23832;43.216;27.946;2023-02-21T04:40:17;100582.53;;;10.56;57.58
38022;BME280;23832;43.216;27.946;2023-02-21T04:42:18;100575.25;;;10.58;57.57
38022;BME280;23832;43.216;27.946;2023-02-21T04:44:20;100572.94;;;10.63;57.03
38022;BME280;23832;43.216;27.946;2023-02-21T04:46:22;100574.03;;;10.69;56.49
38022;BME280;23832;43.216;27.946;2023-02-21T04:48:25;100573.88;;;10.70;56.32
38022;BME280;23832;43.216;27.946;2023-02-21T04:50:26;100573.50;;;10.73;56.87
38022;BME280;23832;43.216;27.946;2023-02-21T04:52:28;100574.97;;;10.76;56.44
38022;BME280;23832;43.216;27.946;2023-02-21T04:54:30;100579.91;;;10.79;56.45
38022;BME280;23832;43.216;27.946;2023-02-21T04:56:32;100576.91;;;10.82;56.37
38022;BME280;23832;43.216;27.946;2023-02-21T04:58:36;100578.38;;;10.85;56.13
38022;BME280;23832;43.216;27.946;2023-02-21T05:00:38;100588.75;;;10.86;56.10
38022;BME280;23832;43.216;27.946;2023-02-21T05:02:41;100578.69;;;10.90;56.07
38022;BME280;23832;43.216;27.946;2023-02-21T05:04:44;100577.50;;;10.92;55.77
38022;BME280;23832;43.216;27.946;2023-02-21T05:06:45;100564.94;;;10.94;55.80
38022;BME280;23832;43.216;27.946;2023-02-21T05:08:47;100572.34;;;10.99;55.82
38022;BME280;23832;43.216;27.946;2023-02-21T05:10:49;100571.97;;;11.02;55.65
38022;BME280;23832;43.216;27.946;2023-02-21T05:12:50;100588.13;;;11.07;55.32
38022;BME280;23832;43.216;27.946;2023-02-21T05:14:52;100584.09;;;11.11;55.65
38022;BME280;23832;43.216;27.946;2023-02-21T05:16:54;100594.97;;;11.16;55.36
38022;BME280;23832;43.216;27.946;2023-02-21T05:18:55;100597.88;;;11.21;55.41
38022;BME280;23832;43.216;27.946;2023-02-21T05:20:58;100595.53;;;11.26;55.60
38022;BME280;23832;43.216;27.946;2023-02-21T05:23:00;100596.47;;;11.33;55.42
38022;BME280;23832;43.216;27.946;2023-02-21T05:25:02;100594.91;;;11.39;54.56
38022;BME280;23832;43.216;27.946;2023-02-21T05:27:03;100588.13;;;11.45;55.08
38022;BME280;23832;43.216;27.946;2023-02-21T05:29:05;100592.69;;;11.51;54.99
38022;BME280;23832;43.216;27.946;2023-02-21T05:31:06;100582.56;;;11.54;55.15
38022;BME280;23832;43.216;27.946;2023-02-21T05:33:08;100577.75;;;11.58;55.55
38022;BME280;23832;43.216;27.946;2023-02-21T05:35:10;100575.75;;;11.60;54.94
38022;BME280;23832;43.216;27.946;2023-02-21T05:37:14;100579.84;;;11.62;54.87
38022;BME280;23832;43.216;27.946;2023-02-21T05:39:16;100575.03;;;11.66;55.21
38022;BME280;23832;43.216;27.946;2023-02-21T05:41:18;100586.50;;;11.73;55.82
38022;BME280;23832;43.216;27.946;2023-02-21T05:43:20;100594.81;;;11.85;56.10
38022;BME280;23832;43.216;27.946;2023-02-21T05:45:21;100595.19;;;11.97;56.02
38022;BME280;23832;43.216;27.946;2023-02-21T05:47:23;100595.19;;;12.11;56.26
38022;BME280;23832;43.216;27.946;2023-02-21T05:49:24;100597.19;;;12.24;55.87
38022;BME280;23832;43.216;27.946;2023-02-21T05:51:27;100599.16;;;12.37;55.30
38022;BME280;23832;43.216;27.946;2023-02-21T05:53:30;100603.81;;;12.49;55.44
38022;BME280;23832;43.216;27.946;2023-02-21T05:55:32;100595.00;;;12.64;55.42
38022;BME280;23832;43.216;27.946;2023-02-21T05:57:36;100601.25;;;12.77;55.23
38022;BME280;23832;43.216;27.946;2023-02-21T05:59:38;100600.97;;;12.94;55.45
38022;BME280;23832;43.216;27.946;2023-02-21T06:01:39;100605.22;;;13.10;54.78
38022;BME280;23832;43.216;27.946;2023-02-21T06:03:41;100592.75;;;13.25;54.59
38022;BME280;23832;43.216;27.946;2023-02-21T06:05:43;100597.59;;;13.43;55.01
38022;BME280;23832;43.216;27.946;2023-02-21T06:07:45;100589.78;;;13.62;54.60
38022;BME280;23832;43.216;27.946;2023-02-21T06:09:48;100593.56;;;13.81;54.26
38022;BME280;23832;43.216;27.946;2023-02-21T06:11:49;100593.66;;;14.01;53.98
38022;BME280;23832;43.216;27.946;2023-02-21T06:13:51;100598.28;;;14.20;53.53
38022;BME280;23832;43.216;27.946;2023-02-21T06:15:53;100595.69;;;14.40;53.20
38022;BME280;23832;43.216;27.946;2023-02-21T06:17:55;100605.38;;;14.61;52.90
38022;BME280;23832;43.216;27.946;2023-02-21T06:19:56;100604.41;;;14.82;52.44
38022;BME280;23832;43.216;27.946;2023-02-21T06:21:58;100598.13;;;15.03;52.02
38022;BME280;23832;43.216;27.946;2023-02-21T06:24:00;100595.25;;;15.24;51.36
38022;BME280;23832;43.216;27.946;2023-02-21T06:26:03;100589.13;;;15.44;50.81
38022;BME280;23832;43.216;27.946;2023-02-21T06:28:05;100593.22;;;15.66;50.74
38022;BME280;23832;43.216;27.946;2023-02-21T06:30:07;100594.81;;;15.87;50.19
38022;BME280;23832;43.216;27.946;2023-02-21T06:32:09;100589.03;;;16.10;49.71
38022;BME280;23832;43.216;27.946;2023-02-21T06:34:11;100596.72;;;16.31;48.82
38022;BME280;23832;43.216;27.946;2023-02-21T06:36:13;100593.75;;;16.53;48.54
38022;BME280;23832;43.216;27.946;2023-02-21T06:38:16;100594.72;;;16.71;47.80
38022;BME280;23832;43.216;27.946;2023-02-21T06:40:17;100584.97;;;16.90;47.77
38022;BME280;23832;43.216;27.946;2023-02-21T06:42:21;100590.97;;;17.11;47.12
38022;BME280;23832;43.216;27.946;2023-02-21T06:44:23;100583.63;;;17.31;46.86
38022;BME280;23832;43.216;27.946;2023-02-21T06:46:25;100578.31;;;17.49;46.14
38022;BME280;23832;43.216;27.946;2023-02-21T06:48:27;100584.78;;;17.60;45.27
38022;BME280;23832;43.216;27.946;2023-02-21T06:50:28;100584.72;;;17.67;44.54
38022;BME280;23832;43.216;27.946;2023-02-21T06:52:30;100581.81;;;17.75;44.17
38022;BME280;23832;43.216;27.946;2023-02-21T06:54:32;100583.81;;;17.79;43.88
38022;BME280;23832;43.216;27.946;2023-02-21T06:56:33;100579.19;;;17.86;43.48
38022;BME280;23832;43.216;27.946;2023-02-21T06:58:36;100583.31;;;17.89;43.29
38022;BME280;23832;43.216;27.946;2023-02-21T07:00:38;100584.47;;;17.93;43.09
38022;BME280;23832;43.216;27.946;2023-02-21T07:02:40;100577.44;;;17.99;43.09
38022;BME280;23832;43.216;27.946;2023-02-21T07:04:41;100572.25;;;18.04;42.80
38022;BME280;23832;43.216;27.946;2023-02-21T07:06:43;100562.91;;;18.13;42.60
38022;BME280;23832;43.216;27.946;2023-02-21T07:08:44;100565.84;;;18.23;42.35
38022;BME280;23832;43.216;27.946;2023-02-21T07:10:46;100563.47;;;18.33;42.37
38022;BME280;23832;43.216;27.946;2023-02-21T07:12:48;100557.59;;;18.43;41.94
38022;BME280;23832;43.216;27.946;2023-02-21T07:14:51;100553.78;;;18.51;41.72
38022;BME280;23832;43.216;27.946;2023-02-21T07:16:52;100555.94;;;18.60;41.42
38022;BME280;23832;43.216;27.946;2023-02-21T07:18:54;100557.38;;;18.75;41.93
38022;BME280;23832;43.216;27.946;2023-02-21T07:20:56;100552.41;;;18.90;41.70
38022;BME280;23832;43.216;27.946;2023-02-21T07:22:58;100535.72;;;19.06;41.46
38022;BME280;23832;43.216;27.946;2023-02-21T07:24:59;100534.19;;;19.22;40.92
38022;BME280;23832;43.216;27.946;2023-02-21T07:27:01;100529.78;;;19.39;40.89
38022;BME280;23832;43.216;27.946;2023-02-21T07:29:03;100532.34;;;19.58;40.51
38022;BME280;23832;43.216;27.946;2023-02-21T07:31:06;100527.09;;;19.74;40.01
38022;BME280;23832;43.216;27.946;2023-02-21T07:33:09;100529.88;;;19.91;39.86
38022;BME280;23832;43.216;27.946;2023-02-21T07:35:11;100525.63;;;20.07;39.41
38022;BME280;23832;43.216;27.946;2023-02-21T07:37:13;100529.44;;;20.23;39.25
38022;BME280;23832;43.216;27.946;2023-02-21T07:39:15;100525.75;;;20.40;38.99
38022;BME280;23832;43.216;27.946;2023-02-21T07:41:16;100523.34;;;20.56;38.42
38022;BME280;23832;43.216;27.946;2023-02-21T07:43:18;100513.47;;;20.73;38.48
38022;BME280;23832;43.216;27.946;2023-02-21T07:45:20;100513.72;;;20.88;38.07
38022;BME280;23832;43.216;27.946;2023-02-21T07:47:23;100512.50;;;20.96;37.49
38022;BME280;23832;43.216;27.946;2023-02-21T07:49:25;100509.91;;;21.01;37.32
38022;BME280;23832;43.216;27.946;2023-02-21T07:51:26;100494.72;;;21.07;37.39
38022;BME280;23832;43.216;27.946;2023-02-21T07:53:29;100483.50;;;21.10;37.36
38022;BME280;23832;43.216;27.946;2023-02-21T07:55:30;100504.22;;;21.14;36.81
38022;BME280;23832;43.216;27.946;2023-02-21T07:57:33;100500.31;;;21.22;36.96
38022;BME280;23832;43.216;27.946;2023-02-21T07:59:34;100479.84;;;21.33;37.28
38022;BME280;23832;43.216;27.946;2023-02-21T08:01:36;100486.44;;;21.47;37.17
38022;BME280;23832;43.216;27.946;2023-02-21T08:03:39;100496.03;;;21.60;36.93
38022;BME280;23832;43.216;27.946;2023-02-21T08:05:40;100494.00;;;21.72;36.64
38022;BME280;23832;43.216;27.946;2023-02-21T08:07:42;100494.38;;;21.80;36.27
38022;BME280;23832;43.216;27.946;2023-02-21T08:09:44;100497.44;;;21.89;36.09
38022;BME280;23832;43.216;27.946;2023-02-21T08:11:46;100491.34;;;21.94;35.49
38022;BME280;23832;43.216;27.946;2023-02-21T08:13:47;100494.06;;;21.99;35.46
38022;BME280;23832;43.216;27.946;2023-02-21T08:15:49;100477.78;;;22.05;35.71
38022;BME280;23832;43.216;27.946;2023-02-21T08:17:50;100462.13;;;21.97;35.19
38022;BME280;23832;43.216;27.946;2023-02-21T08:19:53;100485.97;;;22.16;34.65
38022;BME280;23832;43.216;27.946;2023-02-21T08:21:55;100480.31;;;22.17;34.67
38022;BME280;23832;43.216;27.946;2023-02-21T08:23:57;100480.31;;;22.17;34.30
38022;BME280;23832;43.216;27.946;2023-02-21T08:25:58;100483.88;;;22.23;34.33
38022;BME280;23832;43.216;27.946;2023-02-21T08:28:00;100481.28;;;22.33;34.26
38022;BME280;23832;43.216;27.946;2023-02-21T08:30:02;100479.84;;;22.47;34.34
38022;BME280;23832;43.216;27.946;2023-02-21T08:32:03;100463.63;;;22.69;34.81
38022;BME280;23832;43.216;27.946;2023-02-21T08:34:05;100462.22;;;22.93;34.14
38022;BME280;23832;43.216;27.946;2023-02-21T08:36:09;100456.75;;;23.20;34.05
38022;BME280;23832;43.216;27.946;2023-02-21T08:38:11;100467.63;;;23.46;33.58
38022;BME280;23832;43.216;27.946;2023-02-21T08:40:13;100453.75;;;23.69;32.98
38022;BME280;23832;43.216;27.946;2023-02-21T08:42:15;100462.16;;;23.88;32.79
38022;BME280;23832;43.216;27.946;2023-02-21T08:44:17;100457.06;;;23.97;32.33
38022;BME280;23832;43.216;27.946;2023-02-21T08:46:20;100453.31;;;24.03;31.86
38022;BME280;23832;43.216;27.946;2023-02-21T08:48:22;100453.88;;;24.10;31.86
38022;BME280;23832;43.216;27.946;2023-02-21T08:50:24;100459.25;;;24.10;30.99
38022;BME280;23832;43.216;27.946;2023-02-21T08:52:27;100450.88;;;24.01;30.52
38022;BME280;23832;43.216;27.946;2023-02-21T08:54:29;100456.50;;;23.90;30.37
38022;BME280;23832;43.216;27.946;2023-02-21T08:56:31;100466.16;;;23.81;30.66
38022;BME280;23832;43.216;27.946;2023-02-21T08:58:33;100450.00;;;23.81;30.83
38022;BME280;23832;43.216;27.946;2023-02-21T09:00:34;100458.38;;;23.84;31.07
38022;BME280;23832;43.216;27.946;2023-02-21T09:02:36;100465.66;;;23.89;31.07
38022;BME280;23832;43.216;27.946;2023-02-21T09:04:39;100462.44;;;23.92;31.01
38022;BME280;23832;43.216;27.946;2023-02-21T09:06:41;100466.22;;;23.91;30.72
38022;BME280;23832;43.216;27.946;2023-02-21T09:08:44;100464.03;;;23.83;30.38
38022;BME280;23832;43.216;27.946;2023-02-21T09:10:45;100464.00;;;23.72;30.15
38022;BME280;23832;43.216;27.946;2023-02-21T09:12:48;100462.63;;;23.65;30.29
38022;BME280;23832;43.216;27.946;2023-02-21T09:14:50;100451.53;;;23.56;30.35
38022;BME280;23832;43.216;27.946;2023-02-21T09:16:51;100452.84;;;23.48;30.30
38022;BME280;23832;43.216;27.946;2023-02-21T09:18:54;100450.38;;;23.37;30.44
38022;BME280;23832;43.216;27.946;2023-02-21T09:20:56;100448.13;;;23.23;30.44
38022;BME280;23832;43.216;27.946;2023-02-21T09:22:58;100455.34;;;23.18;30.98
38022;BME280;23832;43.216;27.946;2023-02-21T09:25:01;100457.78;;;23.14;30.89
38022;BME280;23832;43.216;27.946;2023-02-21T09:27:03;100444.84;;;23.11;30.95
38022;BME280;23832;43.216;27.946;2023-02-21T09:29:05;100437.81;;;23.05;30.70
38022;BME280;23832;43.216;27.946;2023-02-21T09:31:06;100442.34;;;23.00;30.64
38022;BME280;23832;43.216;27.946;2023-02-21T09:33:08;100435.06;;;22.95;30.90
38022;BME280;23832;43.216;27.946;2023-02-21T09:35:11;100433.47;;;22.94;30.89
38022;BME280;23832;43.216;27.946;2023-02-21T09:37:14;100432.13;;;22.97;31.11
38022;BME280;23832;43.216;27.946;2023-02-21T09:39:15;100418.94;;;22.95;30.90
38022;BME280;23832;43.216;27.946;2023-02-21T09:41:19;100421.91;;;22.93;30.69
38022;BME280;23832;43.216;27.946;2023-02-21T09:43:22;100419.16;;;22.88;30.57
38022;BME280;23832;43.216;27.946;2023-02-21T09:45:29;100406.19;;;22.80;30.56
38022;BME280;23832;43.216;27.946;2023-02-21T09:47:32;100413.16;;;22.76;30.88
38022;BME280;23832;43.216;27.946;2023-02-21T09:49:37;100402.09;;;22.73;30.97
38022;BME280;23832;43.216;27.946;2023-02-21T09:51:40;100397.78;;;22.72;31.14
38022;BME280;23832;43.216;27.946;2023-02-21T09:53:43;100403.75;;;22.74;31.09
38022;BME280;23832;43.216;27.946;2023-02-21T09:55:47;100385.97;;;22.73;31.01
38022;BME280;23832;43.216;27.946;2023-02-21T09:57:51;100393.00;;;22.74;31.14
38022;BME280;23832;43.216;27.946;2023-02-21T09:59:53;100377.91;;;22.73;30.97
38022;BME280;23832;43.216;27.946;2023-02-21T10:02:00;100385.16;;;22.72;30.90
38022;BME280;23832;43.216;27.946;2023-02-21T10:04:06;100375.75;;;22.70;30.93
38022;BME280;23832;43.216;27.946;2023-02-21T10:06:20;100375.75;;;22.70;31.01
38022;BME280;23832;43.216;27.946;2023-02-21T10:08:27;100373.59;;;22.72;30.94
38022;BME280;23832;43.216;27.946;2023-02-21T10:10:37;100372.53;;;22.73;30.96
38022;BME280;23832;43.216;27.946;2023-02-21T10:12:44;100363.97;;;22.76;30.92
38022;BME280;23832;43.216;27.946;2023-02-21T10:14:56;100348.44;;;22.83;31.31
38022;BME280;23832;43.216;27.946;2023-02-21T10:17:01;100337.47;;;22.89;31.05
38022;BME280;23832;43.216;27.946;2023-02-21T10:19:06;100337.22;;;22.96;31.01
38022;BME280;23832;43.216;27.946;2023-02-21T10:21:12;100330.25;;;23.00;30.83
38022;BME280;23832;43.216;27.946;2023-02-21T10:23:18;100327.84;;;23.09;30.75
38022;BME280;23832;43.216;27.946;2023-02-21T10:25:23;100319.59;;;23.26;30.77
38022;BME280;23832;43.216;27.946;2023-02-21T10:27:29;100311.59;;;23.46;30.43
38022;BME280;23832;43.216;27.946;2023-02-21T10:29:36;100312.16;;;23.58;30.44
38022;BME280;23832;43.216;27.946;2023-02-21T10:31:41;100292.00;;;23.66;30.22
38022;BME280;23832;43.216;27.946;2023-02-21T10:33:44;100287.69;;;23.60;30.34
38022;BME280;23832;43.216;27.946;2023-02-21T10:35:45;100284.72;;;23.61;30.41
38022;BME280;23832;43.216;27.946;2023-02-21T10:37:47;100285.28;;;23.73;30.65
38022;BME280;23832;43.216;27.946;2023-02-21T10:39:52;100284.22;;;23.95;30.56
38022;BME280;23832;43.216;27.946;2023-02-21T10:41:54;100274.47;;;24.29;30.97
38022;BME280;23832;43.216;27.946;2023-02-21T10:43:59;100248.59;;;24.49;30.92
38022;BME280;23832;43.216;27.946;2023-02-21T10:46:03;100260.78;;;25.06;30.74
38022;BME280;23832;43.216;27.946;2023-02-21T10:48:07;100262.72;;;25.44;30.54
38022;BME280;23832;43.216;27.946;2023-02-21T10:50:10;100261.72;;;25.74;29.41
38022;BME280;23832;43.216;27.946;2023-02-21T10:52:12;100256.84;;;26.06;29.01
38022;BME280;23832;43.216;27.946;2023-02-21T10:54:17;100247.69;;;26.30;28.95
38022;BME280;23832;43.216;27.946;2023-02-21T10:56:21;100245.31;;;26.53;28.73
38022;BME280;23832;43.216;27.946;2023-02-21T10:58:24;100225.38;;;26.68;28.21
38022;BME280;23832;43.216;27.946;2023-02-21T11:00:32;100242.06;;;26.75;27.94
38022;BME280;23832;43.216;27.946;2023-02-21T11:02:36;100229.88;;;26.77;28.19
38022;BME280;23832;43.216;27.946;2023-02-21T11:04:40;100221.91;;;26.86;27.98